Mansehra Weather



Mansehra's Current Weather

Temprature 26.21o broken clouds

broken clouds

Rain: 0 %

Min Temprature26.21o
Max Temprature26.21o
Humidity41
Wind Speed1.6 m/h
Sun Rise05:10:54
Sun Set18:56:30
Current Time: 08-May-2021 15:08:02
Lat/Lon: 34.3333, 73.2




Mansehra's Geo Location



Mansehra's Weather Forecast

Time Overall Temp Min Temp Max Temp Humidity Wind Speed Rain
08-May-2021 (Sat)
17:00:00 light rain 25.220 22.380 25.220 44 2.99 m/h 60 %
20:00:00 light rain 20.340 17.190 20.340 60 3.17 m/h 140 %
23:00:00 overcast clouds 17.570 17.570 17.570 66 2.76 m/h 0 %
09-May-2021 (Sun)
02:00:00 overcast clouds 16.870 16.870 16.870 65 2.86 m/h 0 %
05:00:00 light rain 16.390 16.390 16.390 62 2.65 m/h 10 %
08:00:00 scattered clouds 23.070 23.070 23.070 45 1.19 m/h 0 %
11:00:00 light rain 27.690 27.690 27.690 35 1.49 m/h 11 %
14:00:00 clear sky 29.150 29.150 29.150 31 1.38 m/h 0 %
17:00:00 few clouds 28.510 28.510 28.510 32 0.55 m/h 0 %
20:00:00 few clouds 22.130 22.130 22.130 50 1.58 m/h 0 %
23:00:00 light rain 20.110 20.110 20.110 58 2.71 m/h 17 %
10-May-2021 (Mon)
02:00:00 overcast clouds 18.900 18.900 18.900 60 2.43 m/h 0 %
05:00:00 broken clouds 18.120 18.120 18.120 59 2.07 m/h 0 %
08:00:00 scattered clouds 24.080 24.080 24.080 45 0.81 m/h 0 %
11:00:00 scattered clouds 28.370 28.370 28.370 36 1.15 m/h 0 %
14:00:00 broken clouds 29.730 29.730 29.730 32 2.62 m/h 0 %
17:00:00 scattered clouds 29.060 29.060 29.060 32 0.76 m/h 0 %
20:00:00 overcast clouds 22.660 22.660 22.660 49 1.54 m/h 0 %
23:00:00 light rain 20.130 20.130 20.130 59 2.86 m/h 13 %
11-May-2021 (Tue)
02:00:00 broken clouds 19.130 19.130 19.130 58 2.91 m/h 0 %
05:00:00 broken clouds 18.470 18.470 18.470 58 3.1 m/h 0 %
08:00:00 light rain 23.560 23.560 23.560 49 1.59 m/h 160 %
11:00:00 light rain 29.270 29.270 29.270 33 0.75 m/h 43 %
14:00:00 clear sky 30.830 30.830 30.830 29 2.92 m/h 0 %
17:00:00 light rain 20.850 20.850 20.850 61 4.29 m/h 50 %
20:00:00 light rain 17.830 17.830 17.830 69 3.85 m/h 34 %
23:00:00 light rain 16.400 16.400 16.400 78 0.6 m/h 222 %
12-May-2021 (Wed)
02:00:00 light rain 16.510 16.510 16.510 79 3.53 m/h 171 %
05:00:00 light rain 16.070 16.070 16.070 81 2.82 m/h 158 %
08:00:00 light rain 20.330 20.330 20.330 62 1.65 m/h 220 %
11:00:00 light rain 25.190 25.190 25.190 45 1.33 m/h 72 %
14:00:00 light rain 25.440 25.440 25.440 47 0.93 m/h 223 %
17:00:00 light rain 19.790 19.790 19.790 71 3.63 m/h 271 %
20:00:00 moderate rain 15.220 15.220 15.220 86 2.77 m/h 380 %
23:00:00 moderate rain 15.540 15.540 15.540 82 1.06 m/h 304 %
13-May-2021 (Thu)
02:00:00 light rain 15.680 15.680 15.680 77 1.5 m/h 62 %
05:00:00 light rain 15.240 15.240 15.240 78 1.98 m/h 89 %
08:00:00 light rain 18.220 18.220 18.220 66 1.4 m/h 44 %
11:00:00 light rain 23.040 23.040 23.040 47 1.05 m/h 44 %
14:00:00 light rain 23.290 23.290 23.290 46 2.37 m/h 91 %

Famous Cities (60)